Peeples Valley, Arizona
Current Conditions -  °F | °C
As of 12:53 AM on Saturday 29 Nov 2014 (Local Time) from KPRC Reporting Station
Clear Clear  
Wind Chill: 39°   Ceiling: Unl
Heat Index: 39°   Visibility: 10mi
Dew Point: 14°   Wind: 0mph
Humidity: 36%   Direction: NA
Pressure: 30.05"   Gusts: NA
Location:  34.4627°N, 112.899°W
Report Text: KPRC 290753Z AUTO 00000KT 10SM CLR 04/M10 A3005 RMK AO2 SLP127 T00391100
Loading
Personal Weather Stations






























Interactive Weather Map New forecast layout! Learn more

10-Day Weather Forecast

Advertisements
Track Severe Weather on mobile